N930DX SCEL-SADF
Flight info
| Callsign | N930DX |
|---|---|
| Flight time | 1h 52m |
| Altitude | 29000 |
| Route | N0316F290 ALBA7C ALBAL UM424 ASADA DCT TRINI DCT |
| Aircraft | TBM9/L-SDGRY/LB1 |
Departure
| Time | 2026-05-05 08:48 |
|---|---|
| Airport | Comodoro Arturo Merino Benítez International Airport (SCEL) |
Arrival
| Time | 2026-05-05 10:40 |
|---|---|
| Airport | San Fernando Airport (SADF) |
| Time | Latitude | Longitude | Altitude | Speed | Heading |
|---|---|---|---|---|---|
| 2026-05-05 08:48 | -33.51409 | -70.77859 | 5898 ft | 206 kts | 177° |
| 2026-05-05 08:48 | -33.52855 | -70.77773 | 6434 ft | 207 kts | 178° |
| 2026-05-05 08:49 | -33.55959 | -70.77584 | 7529 ft | 212 kts | 178° |
| 2026-05-05 08:49 | -33.57438 | -70.77493 | 8053 ft | 214 kts | 178° |
| 2026-05-05 08:49 | -33.58438 | -70.77431 | 8407 ft | 216 kts | 178° |
| 2026-05-05 08:50 | -33.60449 | -70.77308 | 9133 ft | 219 kts | 179° |
| 2026-05-05 08:50 | -33.61459 | -70.77245 | 9497 ft | 220 kts | 179° |
| 2026-05-05 08:50 | -33.63007 | -70.77151 | 10017 ft | 224 kts | 179° |
| 2026-05-05 08:50 | -33.64576 | -70.77057 | 10429 ft | 230 kts | 179° |
| 2026-05-05 08:51 | -33.66205 | -70.76959 | 10859 ft | 235 kts | 180° |
| 2026-05-05 08:51 | -33.67847 | -70.76859 | 11292 ft | 238 kts | 180° |
| 2026-05-05 08:51 | -33.69507 | -70.76757 | 11730 ft | 241 kts | 181° |
| 2026-05-05 08:51 | -33.71190 | -70.76653 | 12175 ft | 243 kts | 181° |
| 2026-05-05 08:52 | -33.72894 | -70.76549 | 12628 ft | 245 kts | 182° |
| 2026-05-05 08:52 | -33.74587 | -70.76445 | 13085 ft | 246 kts | 182° |
| 2026-05-05 08:52 | -33.76290 | -70.76340 | 13541 ft | 247 kts | 183° |
| 2026-05-05 08:52 | -33.78004 | -70.76234 | 13983 ft | 247 kts | 183° |
| 2026-05-05 08:53 | -33.79736 | -70.76075 | 14398 ft | 251 kts | 176° |
| 2026-05-05 08:53 | -33.81400 | -70.75396 | 14801 ft | 259 kts | 158° |
| 2026-05-05 08:53 | -33.82891 | -70.74136 | 15217 ft | 265 kts | 140° |
| 2026-05-05 08:53 | -33.84025 | -70.72398 | 15632 ft | 269 kts | 121° |
| 2026-05-05 08:54 | -33.84835 | -70.70336 | 16071 ft | 270 kts | 116° |
| 2026-05-05 08:54 | -33.85613 | -70.68296 | 16517 ft | 271 kts | 116° |
| 2026-05-05 08:54 | -33.86411 | -70.66217 | 16973 ft | 272 kts | 117° |
| 2026-05-05 08:54 | -33.87200 | -70.64153 | 17436 ft | 274 kts | 117° |
| 2026-05-05 08:55 | -33.87996 | -70.62068 | 17914 ft | 276 kts | 117° |
| 2026-05-05 08:55 | -33.88800 | -70.59964 | 18321 ft | 280 kts | 118° |
| 2026-05-05 08:55 | -33.89625 | -70.57805 | 18696 ft | 284 kts | 118° |
| 2026-05-05 08:55 | -33.90446 | -70.55654 | 19065 ft | 287 kts | 118° |
| 2026-05-05 08:56 | -33.91286 | -70.53451 | 19444 ft | 288 kts | 118° |
| 2026-05-05 08:56 | -33.92118 | -70.51267 | 19825 ft | 290 kts | 118° |
| 2026-05-05 08:56 | -33.92967 | -70.49035 | 20200 ft | 294 kts | 118° |
| 2026-05-05 08:56 | -33.93814 | -70.46808 | 20539 ft | 296 kts | 118° |
| 2026-05-05 08:57 | -33.94683 | -70.44526 | 20886 ft | 299 kts | 118° |
| 2026-05-05 08:57 | -33.95548 | -70.42251 | 21243 ft | 303 kts | 118° |
| 2026-05-05 08:57 | -33.96436 | -70.39912 | 21582 ft | 306 kts | 118° |
| 2026-05-05 08:57 | -33.97319 | -70.37585 | 21897 ft | 310 kts | 118° |
| 2026-05-05 08:58 | -33.98229 | -70.35189 | 22223 ft | 314 kts | 118° |
| 2026-05-05 08:58 | -33.99138 | -70.32788 | 22546 ft | 318 kts | 118° |
| 2026-05-05 08:58 | -34.00053 | -70.30369 | 22856 ft | 319 kts | 118° |
| 2026-05-05 08:58 | -34.00973 | -70.27936 | 23184 ft | 321 kts | 118° |
| 2026-05-05 08:59 | -34.01894 | -70.25502 | 23519 ft | 319 kts | 118° |
| 2026-05-05 08:59 | -34.02829 | -70.23028 | 23814 ft | 324 kts | 118° |
| 2026-05-05 08:59 | -34.03765 | -70.20548 | 24086 ft | 325 kts | 118° |
| 2026-05-05 08:59 | -34.04700 | -70.18069 | 24369 ft | 326 kts | 118° |
| 2026-05-05 09:00 | -34.05639 | -70.15578 | 24650 ft | 329 kts | 119° |
| 2026-05-05 09:00 | -34.06596 | -70.13039 | 24934 ft | 333 kts | 118° |
| 2026-05-05 09:00 | -34.07551 | -70.10498 | 25214 ft | 335 kts | 118° |
| 2026-05-05 09:00 | -34.08507 | -70.07953 | 25501 ft | 334 kts | 118° |
| 2026-05-05 09:01 | -34.09475 | -70.05376 | 25784 ft | 334 kts | 118° |
| 2026-05-05 09:01 | -34.10428 | -70.02839 | 26068 ft | 334 kts | 118° |
| 2026-05-05 09:01 | -34.11394 | -70.00265 | 26364 ft | 334 kts | 118° |
| 2026-05-05 09:01 | -34.12345 | -69.97725 | 26659 ft | 335 kts | 118° |
| 2026-05-05 09:02 | -34.13309 | -69.95155 | 26950 ft | 334 kts | 118° |
| 2026-05-05 09:02 | -34.14260 | -69.92617 | 27235 ft | 335 kts | 118° |
| 2026-05-05 09:02 | -34.15221 | -69.90041 | 27539 ft | 335 kts | 118° |
| 2026-05-05 09:02 | -34.16186 | -69.87460 | 27841 ft | 336 kts | 118° |
| 2026-05-05 09:03 | -34.17138 | -69.84911 | 28133 ft | 337 kts | 118° |
| 2026-05-05 09:03 | -34.18075 | -69.82281 | 28424 ft | 339 kts | 113° |
| 2026-05-05 09:03 | -34.18649 | -69.79539 | 28708 ft | 340 kts | 101° |
| 2026-05-05 09:03 | -34.19026 | -69.76713 | 29015 ft | 338 kts | 101° |
| 2026-05-05 09:04 | -34.19419 | -69.73912 | 29053 ft | 346 kts | 102° |
| 2026-05-05 09:04 | -34.20239 | -69.68063 | 29030 ft | 359 kts | 101° |
| 2026-05-05 09:05 | -34.21064 | -69.62033 | 29006 ft | 365 kts | 101° |
| 2026-05-05 09:05 | -34.21898 | -69.55976 | 28991 ft | 365 kts | 101° |
| 2026-05-05 09:06 | -34.22723 | -69.49931 | 28967 ft | 364 kts | 101° |
| 2026-05-05 09:06 | -34.23539 | -69.43937 | 28943 ft | 362 kts | 101° |
| 2026-05-05 09:07 | -34.24350 | -69.37969 | 28926 ft | 359 kts | 101° |
| 2026-05-05 09:07 | -34.25152 | -69.32014 | 28907 ft | 357 kts | 101° |
| 2026-05-05 09:08 | -34.25949 | -69.26104 | 28899 ft | 356 kts | 101° |
| 2026-05-05 09:08 | -34.26740 | -69.20200 | 28896 ft | 356 kts | 101° |
| 2026-05-05 09:09 | -34.27531 | -69.14283 | 28888 ft | 356 kts | 101° |
| 2026-05-05 09:09 | -34.28320 | -69.08358 | 28888 ft | 357 kts | 101° |
| 2026-05-05 09:10 | -34.29108 | -69.02414 | 28893 ft | 358 kts | 101° |
| 2026-05-05 09:10 | -34.29886 | -68.96466 | 28897 ft | 359 kts | 101° |
| 2026-05-05 09:11 | -34.30667 | -68.90493 | 28898 ft | 360 kts | 101° |
| 2026-05-05 09:11 | -34.31445 | -68.84510 | 28906 ft | 360 kts | 100° |
| 2026-05-05 09:12 | -34.32220 | -68.78530 | 28908 ft | 360 kts | 100° |
| 2026-05-05 09:12 | -34.32988 | -68.72581 | 28912 ft | 360 kts | 100° |
| 2026-05-05 09:13 | -34.33760 | -68.66574 | 28909 ft | 359 kts | 100° |
| 2026-05-05 09:13 | -34.34520 | -68.60638 | 28904 ft | 359 kts | 100° |
| 2026-05-05 09:14 | -34.35285 | -68.54635 | 28901 ft | 359 kts | 100° |
| 2026-05-05 09:14 | -34.36040 | -68.48694 | 28894 ft | 359 kts | 100° |
| 2026-05-05 09:15 | -34.36799 | -68.42691 | 28891 ft | 359 kts | 100° |
| 2026-05-05 09:15 | -34.37547 | -68.36752 | 28892 ft | 359 kts | 100° |
| 2026-05-05 09:16 | -34.38298 | -68.30774 | 28894 ft | 359 kts | 99° |
| 2026-05-05 09:16 | -34.39042 | -68.24820 | 28896 ft | 359 kts | 99° |
| 2026-05-05 09:17 | -34.39786 | -68.18842 | 28901 ft | 359 kts | 99° |
| 2026-05-05 09:17 | -34.40526 | -68.12868 | 28908 ft | 359 kts | 99° |
| 2026-05-05 09:18 | -34.41265 | -68.06888 | 28906 ft | 359 kts | 99° |
| 2026-05-05 09:18 | -34.41998 | -68.00922 | 28912 ft | 359 kts | 99° |
| 2026-05-05 09:19 | -34.42732 | -67.94928 | 28911 ft | 359 kts | 99° |
| 2026-05-05 09:19 | -34.43464 | -67.88927 | 28908 ft | 360 kts | 99° |
| 2026-05-05 09:20 | -34.44190 | -67.82950 | 28904 ft | 360 kts | 99° |
| 2026-05-05 09:20 | -34.44909 | -67.76945 | 28904 ft | 360 kts | 99° |
| 2026-05-05 09:21 | -34.45602 | -67.70934 | 28904 ft | 360 kts | 99° |
| 2026-05-05 09:21 | -34.46304 | -67.64927 | 28897 ft | 360 kts | 99° |
| 2026-05-05 09:22 | -34.47001 | -67.58887 | 28898 ft | 361 kts | 99° |
| 2026-05-05 09:22 | -34.47695 | -67.52869 | 28901 ft | 361 kts | 99° |
| 2026-05-05 09:23 | -34.48383 | -67.46862 | 28897 ft | 361 kts | 98° |
| 2026-05-05 09:23 | -34.49074 | -67.40813 | 28899 ft | 361 kts | 98° |
| 2026-05-05 09:24 | -34.49758 | -67.34794 | 28899 ft | 362 kts | 98° |
| 2026-05-05 09:24 | -34.50443 | -67.28736 | 28891 ft | 362 kts | 98° |
| 2026-05-05 09:25 | -34.51124 | -67.22690 | 28893 ft | 362 kts | 98° |
| 2026-05-05 09:25 | -34.51801 | -67.16650 | 28893 ft | 362 kts | 98° |
| 2026-05-05 09:26 | -34.52479 | -67.10574 | 28893 ft | 362 kts | 98° |
| 2026-05-05 09:26 | -34.53147 | -67.04548 | 28890 ft | 363 kts | 98° |
| 2026-05-05 09:27 | -34.53820 | -66.98467 | 28889 ft | 363 kts | 98° |
| 2026-05-05 09:27 | -34.54485 | -66.92416 | 28886 ft | 363 kts | 98° |
| 2026-05-05 09:28 | -34.55151 | -66.86336 | 28884 ft | 363 kts | 98° |
| 2026-05-05 09:28 | -34.55814 | -66.80254 | 28882 ft | 364 kts | 98° |
| 2026-05-05 09:29 | -34.56475 | -66.74155 | 28877 ft | 364 kts | 98° |
| 2026-05-05 09:29 | -34.57133 | -66.68069 | 28875 ft | 364 kts | 98° |
| 2026-05-05 09:30 | -34.57788 | -66.61975 | 28879 ft | 365 kts | 98° |
| 2026-05-05 09:30 | -34.58443 | -66.55848 | 28878 ft | 366 kts | 98° |
| 2026-05-05 09:31 | -34.59093 | -66.49741 | 28879 ft | 366 kts | 98° |
| 2026-05-05 09:31 | -34.59743 | -66.43599 | 28881 ft | 366 kts | 98° |
| 2026-05-05 09:32 | -34.60388 | -66.37484 | 28880 ft | 366 kts | 98° |
| 2026-05-05 09:32 | -34.61031 | -66.31346 | 28885 ft | 366 kts | 98° |
| 2026-05-05 09:33 | -34.61673 | -66.25199 | 28884 ft | 367 kts | 98° |
| 2026-05-05 09:33 | -34.62309 | -66.19070 | 28889 ft | 367 kts | 97° |
| 2026-05-05 09:34 | -34.62945 | -66.12910 | 28887 ft | 367 kts | 97° |
| 2026-05-05 09:34 | -34.63578 | -66.06763 | 28886 ft | 367 kts | 97° |
| 2026-05-05 09:35 | -34.64101 | -66.01651 | 28886 ft | 367 kts | 97° |
| 2026-05-05 09:35 | -34.65043 | -65.92387 | 28891 ft | 368 kts | 97° |
| 2026-05-05 09:36 | -34.65664 | -65.86241 | 28888 ft | 368 kts | 97° |
| 2026-05-05 09:36 | -34.66282 | -65.80094 | 28889 ft | 368 kts | 97° |
| 2026-05-05 09:37 | -34.66901 | -65.73902 | 28893 ft | 368 kts | 97° |
| 2026-05-05 09:37 | -34.67516 | -65.67728 | 28895 ft | 368 kts | 97° |
| 2026-05-05 09:38 | -34.68127 | -65.61553 | 28893 ft | 368 kts | 97° |
| 2026-05-05 09:38 | -34.68736 | -65.55376 | 28887 ft | 369 kts | 97° |
| 2026-05-05 09:39 | -34.69341 | -65.49197 | 28890 ft | 369 kts | 97° |
| 2026-05-05 09:39 | -34.69943 | -65.43016 | 28894 ft | 369 kts | 97° |
| 2026-05-05 09:40 | -34.70544 | -65.36818 | 28894 ft | 369 kts | 97° |
| 2026-05-05 09:40 | -34.71139 | -65.30627 | 28893 ft | 369 kts | 97° |
| 2026-05-05 09:41 | -34.71734 | -65.24420 | 28894 ft | 369 kts | 97° |
| 2026-05-05 09:41 | -34.72324 | -65.18228 | 28891 ft | 369 kts | 97° |
| 2026-05-05 09:42 | -34.72910 | -65.12038 | 28890 ft | 369 kts | 97° |
| 2026-05-05 09:42 | -34.73495 | -65.05830 | 28892 ft | 370 kts | 97° |
| 2026-05-05 09:43 | -34.74077 | -64.99614 | 28889 ft | 370 kts | 97° |
| 2026-05-05 09:43 | -34.74655 | -64.93407 | 28891 ft | 370 kts | 97° |
| 2026-05-05 09:44 | -34.75230 | -64.87204 | 28892 ft | 370 kts | 97° |
| 2026-05-05 09:44 | -34.75805 | -64.80955 | 28896 ft | 370 kts | 97° |
| 2026-05-05 09:45 | -34.76371 | -64.74775 | 28892 ft | 370 kts | 97° |
| 2026-05-05 09:45 | -34.76939 | -64.68547 | 28893 ft | 369 kts | 97° |
| 2026-05-05 09:46 | -34.77500 | -64.62351 | 28890 ft | 369 kts | 97° |
| 2026-05-05 09:46 | -34.78073 | -64.56130 | 28889 ft | 369 kts | 97° |
| 2026-05-05 09:47 | -34.78637 | -64.49920 | 28896 ft | 369 kts | 97° |
| 2026-05-05 09:47 | -34.79201 | -64.43693 | 28896 ft | 369 kts | 97° |
| 2026-05-05 09:48 | -34.79757 | -64.37515 | 28893 ft | 369 kts | 97° |
| 2026-05-05 09:48 | -34.80315 | -64.31280 | 28893 ft | 369 kts | 97° |
| 2026-05-05 09:49 | -34.80868 | -64.25072 | 28893 ft | 370 kts | 97° |
| 2026-05-05 09:49 | -34.81416 | -64.18864 | 28892 ft | 370 kts | 97° |
| 2026-05-05 09:50 | -34.81963 | -64.12647 | 28896 ft | 370 kts | 97° |
| 2026-05-05 09:50 | -34.82509 | -64.06402 | 28895 ft | 370 kts | 97° |
| 2026-05-05 09:51 | -34.83051 | -64.00168 | 28896 ft | 370 kts | 97° |
| 2026-05-05 09:51 | -34.83588 | -63.93931 | 28898 ft | 370 kts | 97° |
| 2026-05-05 09:52 | -34.84118 | -63.87742 | 28894 ft | 370 kts | 97° |
| 2026-05-05 09:52 | -34.84649 | -63.81503 | 28893 ft | 370 kts | 97° |
| 2026-05-05 09:53 | -34.85174 | -63.75294 | 28894 ft | 370 kts | 97° |
| 2026-05-05 09:53 | -34.85698 | -63.69064 | 28894 ft | 370 kts | 97° |
| 2026-05-05 09:54 | -34.86219 | -63.62823 | 28897 ft | 370 kts | 97° |
| 2026-05-05 09:54 | -34.86738 | -63.56569 | 28899 ft | 370 kts | 97° |
| 2026-05-05 09:55 | -34.87221 | -63.50327 | 28900 ft | 370 kts | 95° |
| 2026-05-05 09:55 | -34.87618 | -63.44083 | 28901 ft | 370 kts | 96° |
| 2026-05-05 09:56 | -34.88051 | -63.37874 | 28898 ft | 370 kts | 96° |
| 2026-05-05 09:56 | -34.88467 | -63.31622 | 28900 ft | 370 kts | 96° |
| 2026-05-05 09:57 | -34.88889 | -63.25340 | 28899 ft | 371 kts | 96° |
| 2026-05-05 09:57 | -34.89302 | -63.19095 | 28900 ft | 371 kts | 96° |
| 2026-05-05 09:58 | -34.89713 | -63.12832 | 28904 ft | 371 kts | 96° |
| 2026-05-05 09:58 | -34.90122 | -63.06568 | 28903 ft | 371 kts | 96° |
| 2026-05-05 09:59 | -34.90528 | -63.00292 | 28902 ft | 371 kts | 96° |
| 2026-05-05 09:59 | -34.90930 | -62.94024 | 28904 ft | 372 kts | 95° |
| 2026-05-05 10:00 | -34.91328 | -62.87773 | 28903 ft | 372 kts | 95° |
| 2026-05-05 10:00 | -34.91726 | -62.81478 | 28904 ft | 372 kts | 95° |
| 2026-05-05 10:01 | -34.92119 | -62.75203 | 28906 ft | 372 kts | 95° |
| 2026-05-05 10:01 | -34.92510 | -62.68900 | 28907 ft | 372 kts | 95° |
| 2026-05-05 10:02 | -34.92895 | -62.62652 | 28906 ft | 372 kts | 95° |
| 2026-05-05 10:02 | -34.93278 | -62.56375 | 28910 ft | 372 kts | 95° |
| 2026-05-05 10:03 | -34.93659 | -62.50086 | 28908 ft | 372 kts | 95° |
| 2026-05-05 10:03 | -34.94036 | -62.43804 | 28910 ft | 372 kts | 95° |
| 2026-05-05 10:04 | -34.94411 | -62.37500 | 28914 ft | 373 kts | 95° |
| 2026-05-05 10:04 | -34.94784 | -62.31180 | 28913 ft | 373 kts | 95° |
| 2026-05-05 10:05 | -34.95150 | -62.24920 | 28913 ft | 373 kts | 95° |
| 2026-05-05 10:05 | -34.95515 | -62.18616 | 28914 ft | 373 kts | 95° |
| 2026-05-05 10:06 | -34.95877 | -62.12313 | 28915 ft | 373 kts | 95° |
| 2026-05-05 10:06 | -34.96236 | -62.05982 | 28916 ft | 372 kts | 95° |
| 2026-05-05 10:07 | -34.96590 | -61.99710 | 28915 ft | 372 kts | 95° |
| 2026-05-05 10:07 | -34.96943 | -61.93385 | 28919 ft | 372 kts | 95° |
| 2026-05-05 10:08 | -34.97291 | -61.87109 | 28921 ft | 372 kts | 95° |
| 2026-05-05 10:08 | -34.97635 | -61.80816 | 28920 ft | 372 kts | 95° |
| 2026-05-05 10:09 | -34.97976 | -61.74535 | 28918 ft | 372 kts | 95° |
| 2026-05-05 10:09 | -34.98316 | -61.68224 | 28918 ft | 372 kts | 95° |
| 2026-05-05 10:10 | -34.98651 | -61.61928 | 28919 ft | 372 kts | 95° |
| 2026-05-05 10:10 | -34.98919 | -61.55620 | 28921 ft | 373 kts | 92° |
| 2026-05-05 10:11 | -34.99087 | -61.49285 | 28920 ft | 373 kts | 93° |
| 2026-05-05 10:11 | -34.99254 | -61.43005 | 28921 ft | 373 kts | 92° |
| 2026-05-05 10:12 | -34.99416 | -61.36682 | 28924 ft | 373 kts | 92° |
| 2026-05-05 10:12 | -34.99576 | -61.30348 | 28922 ft | 373 kts | 92° |
| 2026-05-05 10:13 | -34.99731 | -61.24026 | 28919 ft | 373 kts | 92° |
| 2026-05-05 10:13 | -34.99883 | -61.17748 | 28920 ft | 373 kts | 92° |
| 2026-05-05 10:14 | -35.00032 | -61.11438 | 28923 ft | 373 kts | 92° |
| 2026-05-05 10:14 | -35.00179 | -61.05093 | 28921 ft | 373 kts | 92° |
| 2026-05-05 10:15 | -35.00321 | -60.98791 | 28922 ft | 372 kts | 92° |
| 2026-05-05 10:15 | -35.00461 | -60.92475 | 28922 ft | 372 kts | 92° |
| 2026-05-05 10:16 | -35.00596 | -60.86162 | 28922 ft | 373 kts | 92° |
| 2026-05-05 10:16 | -35.00729 | -60.79844 | 28929 ft | 373 kts | 92° |
| 2026-05-05 10:17 | -35.00859 | -60.73535 | 28930 ft | 373 kts | 92° |
| 2026-05-05 10:17 | -35.00985 | -60.67217 | 28932 ft | 373 kts | 92° |
| 2026-05-05 10:18 | -35.01109 | -60.60873 | 28934 ft | 373 kts | 92° |
| 2026-05-05 10:18 | -35.01208 | -60.55620 | 28932 ft | 373 kts | 92° |
| 2026-05-05 10:19 | -35.01326 | -60.49293 | 28931 ft | 373 kts | 92° |
| 2026-05-05 10:19 | -35.01440 | -60.42970 | 28936 ft | 373 kts | 92° |
| 2026-05-05 10:20 | -35.01551 | -60.36607 | 28938 ft | 373 kts | 92° |
| 2026-05-05 10:20 | -35.01658 | -60.30285 | 28938 ft | 373 kts | 92° |
| 2026-05-05 10:21 | -35.01762 | -60.23980 | 28940 ft | 373 kts | 92° |
| 2026-05-05 10:21 | -35.01863 | -60.17651 | 28937 ft | 373 kts | 92° |
| 2026-05-05 10:22 | -35.01960 | -60.11329 | 28940 ft | 373 kts | 92° |
| 2026-05-05 10:22 | -35.02054 | -60.05006 | 28943 ft | 373 kts | 92° |
| 2026-05-05 10:23 | -35.02145 | -59.98681 | 28947 ft | 373 kts | 92° |
| 2026-05-05 10:23 | -35.02192 | -59.95482 | 28678 ft | 378 kts | 92° |
| 2026-05-05 10:23 | -35.02238 | -59.92249 | 28276 ft | 379 kts | 92° |
| 2026-05-05 10:24 | -35.02281 | -59.89035 | 27814 ft | 380 kts | 92° |
| 2026-05-05 10:24 | -35.02323 | -59.85836 | 27356 ft | 381 kts | 92° |
| 2026-05-05 10:24 | -35.02365 | -59.82572 | 26897 ft | 382 kts | 92° |
| 2026-05-05 10:24 | -35.02407 | -59.79353 | 26454 ft | 382 kts | 92° |
| 2026-05-05 10:25 | -35.02448 | -59.76121 | 26014 ft | 383 kts | 92° |
| 2026-05-05 10:25 | -35.02488 | -59.72847 | 25577 ft | 384 kts | 92° |
| 2026-05-05 10:25 | -35.02527 | -59.69574 | 25148 ft | 384 kts | 91° |
| 2026-05-05 10:25 | -35.02440 | -59.66336 | 24681 ft | 385 kts | 83° |
| 2026-05-05 10:26 | -35.01923 | -59.63154 | 24206 ft | 384 kts | 73° |
| 2026-05-05 10:26 | -35.01005 | -59.60093 | 23703 ft | 382 kts | 63° |
| 2026-05-05 10:26 | -34.99718 | -59.57271 | 23118 ft | 378 kts | 52° |
| 2026-05-05 10:26 | -34.98246 | -59.54633 | 22535 ft | 378 kts | 52° |
| 2026-05-05 10:27 | -34.96792 | -59.51983 | 21970 ft | 378 kts | 52° |
| 2026-05-05 10:27 | -34.95336 | -59.49306 | 21405 ft | 377 kts | 52° |
| 2026-05-05 10:27 | -34.93869 | -59.46635 | 20802 ft | 375 kts | 52° |
| 2026-05-05 10:27 | -34.92425 | -59.44028 | 20217 ft | 371 kts | 52° |
| 2026-05-05 10:28 | -34.90988 | -59.41429 | 19637 ft | 365 kts | 52° |
| 2026-05-05 10:28 | -34.89591 | -59.38892 | 19073 ft | 359 kts | 52° |
| 2026-05-05 10:28 | -34.88213 | -59.36396 | 18519 ft | 354 kts | 52° |
| 2026-05-05 10:28 | -34.86837 | -59.33903 | 17922 ft | 350 kts | 52° |
| 2026-05-05 10:29 | -34.85499 | -59.31477 | 17298 ft | 346 kts | 52° |
| 2026-05-05 10:29 | -34.84152 | -59.29038 | 16685 ft | 342 kts | 52° |
| 2026-05-05 10:29 | -34.82838 | -59.26664 | 16087 ft | 338 kts | 52° |
| 2026-05-05 10:29 | -34.81530 | -59.24302 | 15500 ft | 333 kts | 52° |
| 2026-05-05 10:30 | -34.80239 | -59.21971 | 14924 ft | 329 kts | 52° |
| 2026-05-05 10:30 | -34.78980 | -59.19699 | 14364 ft | 325 kts | 52° |
| 2026-05-05 10:30 | -34.77726 | -59.17440 | 13809 ft | 320 kts | 52° |
| 2026-05-05 10:30 | -34.76491 | -59.15215 | 13192 ft | 312 kts | 52° |
| 2026-05-05 10:31 | -34.75290 | -59.13060 | 12584 ft | 306 kts | 52° |
| 2026-05-05 10:31 | -34.74102 | -59.10921 | 11979 ft | 298 kts | 52° |
| 2026-05-05 10:31 | -34.72956 | -59.08862 | 11396 ft | 293 kts | 52° |
| 2026-05-05 10:31 | -34.71830 | -59.06837 | 10824 ft | 288 kts | 52° |
| 2026-05-05 10:32 | -34.70722 | -59.04845 | 10268 ft | 284 kts | 52° |
| 2026-05-05 10:32 | -34.69615 | -59.02857 | 9688 ft | 280 kts | 53° |
| 2026-05-05 10:32 | -34.68541 | -59.00930 | 9086 ft | 276 kts | 53° |
| 2026-05-05 10:32 | -34.67470 | -58.99013 | 8528 ft | 273 kts | 53° |
| 2026-05-05 10:33 | -34.66406 | -58.97106 | 7987 ft | 270 kts | 53° |
| 2026-05-05 10:33 | -34.65352 | -58.95216 | 7457 ft | 268 kts | 53° |
| 2026-05-05 10:33 | -34.64321 | -58.93370 | 6941 ft | 266 kts | 53° |
| 2026-05-05 10:33 | -34.63281 | -58.91507 | 6423 ft | 264 kts | 53° |
| 2026-05-05 10:34 | -34.62249 | -58.89662 | 5884 ft | 262 kts | 52° |
| 2026-05-05 10:34 | -34.61242 | -58.87860 | 5383 ft | 259 kts | 52° |
| 2026-05-05 10:34 | -34.60231 | -58.86057 | 4946 ft | 255 kts | 52° |
| 2026-05-05 10:34 | -34.59240 | -58.84292 | 4545 ft | 251 kts | 52° |
| 2026-05-05 10:35 | -34.58268 | -58.82558 | 4273 ft | 246 kts | 52° |
| 2026-05-05 10:35 | -34.57306 | -58.80849 | 4026 ft | 244 kts | 53° |
| 2026-05-05 10:35 | -34.56379 | -58.79193 | 4003 ft | 235 kts | 53° |
| 2026-05-05 10:35 | -34.55555 | -58.77492 | 3913 ft | 234 kts | 58° |
| 2026-05-05 10:36 | -34.54752 | -58.75764 | 3714 ft | 235 kts | 58° |
| 2026-05-05 10:36 | -34.53968 | -58.74098 | 3516 ft | 224 kts | 58° |
| 2026-05-05 10:36 | -34.53199 | -58.72484 | 3313 ft | 217 kts | 58° |
| 2026-05-05 10:36 | -34.52459 | -58.70923 | 3107 ft | 209 kts | 58° |
| 2026-05-05 10:37 | -34.51776 | -58.69473 | 2893 ft | 185 kts | 58° |
| 2026-05-05 10:37 | -34.51167 | -58.68189 | 2673 ft | 165 kts | 58° |
| 2026-05-05 10:37 | -34.50637 | -58.67073 | 2451 ft | 145 kts | 58° |
| 2026-05-05 10:37 | -34.50153 | -58.66055 | 2219 ft | 133 kts | 57° |
| 2026-05-05 10:38 | -34.49696 | -58.65094 | 1965 ft | 127 kts | 58° |
| 2026-05-05 10:38 | -34.49325 | -58.64308 | 1678 ft | 97 kts | 57° |
| 2026-05-05 10:38 | -34.48981 | -58.63592 | 1378 ft | 99 kts | 57° |
| 2026-05-05 10:38 | -34.48633 | -58.62873 | 1080 ft | 93 kts | 53° |
| 2026-05-05 10:39 | -34.48217 | -58.62322 | 833 ft | 90 kts | 41° |
| 2026-05-05 10:39 | -34.47770 | -58.61817 | 717 ft | 88 kts | 43° |
| 2026-05-05 10:39 | -34.47331 | -58.61291 | 592 ft | 91 kts | 43° |
| 2026-05-05 10:39 | -34.46872 | -58.60752 | 449 ft | 92 kts | 44° |
| 2026-05-05 10:40 | -34.46418 | -58.60221 | 274 ft | 90 kts | 45° |
| 2026-05-05 10:40 | -34.45976 | -58.59703 | 90 ft | 84 kts | 45° |
| 2026-05-05 10:40 | -34.45603 | -58.59263 | 28 ft | 64 kts | 43° |
| 2026-05-05 10:40 | -34.45317 | -58.58930 | 23 ft | 46 kts | 44° |
| 2026-05-05 10:41 | -34.45102 | -58.58677 | 17 ft | 43 kts | 44° |
| 2026-05-05 10:41 | -34.44896 | -58.58437 | 11 ft | 28 kts | 43° |
| 2026-05-05 10:41 | -34.44858 | -58.58317 | 11 ft | 11 kts | 136° |
| 2026-05-05 10:41 | -34.44883 | -58.58292 | 11 ft | 0 kts | 145° |
| 2026-05-05 10:42 | -34.44941 | -58.58248 | 11 ft | 14 kts | 150° |
| 2026-05-05 10:43 | -34.45036 | -58.58178 | 12 ft | 18 kts | 149° |
| 2026-05-05 10:43 | -34.45151 | -58.58096 | 12 ft | 21 kts | 151° |
| 2026-05-05 10:43 | -34.45271 | -58.58010 | 13 ft | 18 kts | 149° |
| 2026-05-05 10:43 | -34.45338 | -58.57998 | 13 ft | 10 kts | 246° |
| 2026-05-05 10:44 | -34.45374 | -58.58084 | 15 ft | 13 kts | 243° |
| 2026-05-05 10:44 | -34.45426 | -58.58205 | 16 ft | 18 kts | 242° |
| 2026-05-05 10:44 | -34.45464 | -58.58248 | 17 ft | 6 kts | 146° |
| 2026-05-05 10:44 | -34.45483 | -58.58216 | 17 ft | 4 kts | 190° |
| 2026-05-05 10:45 | -34.45477 | -58.58227 | 17 ft | 4 kts | 8° |
| 2026-05-05 10:45 | -34.45471 | -58.58228 | 17 ft | 0 kts | 321° |